sensor_id;sensor_type;location;lat;lon;timestamp;P1;durP1;ratioP1;P2;durP2;ratioP2
62582;SDS011;48641;51.676;5.808;2023-09-08T00:00:49;7.03;;;4.40;;
62582;SDS011;48641;51.676;5.808;2023-09-08T00:03:14;6.75;;;4.10;;
62582;SDS011;48641;51.676;5.808;2023-09-08T00:05:40;6.65;;;3.72;;
62582;SDS011;48641;51.676;5.808;2023-09-08T00:08:06;6.07;;;3.55;;
62582;SDS011;48641;51.676;5.808;2023-09-08T00:10:32;6.88;;;3.75;;
62582;SDS011;48641;51.676;5.808;2023-09-08T00:12:57;6.88;;;3.90;;
62582;SDS011;48641;51.676;5.808;2023-09-08T00:15:23;7.43;;;4.00;;
62582;SDS011;48641;51.676;5.808;2023-09-08T00:17:48;6.85;;;4.10;;
62582;SDS011;48641;51.676;5.808;2023-09-08T00:20:14;6.85;;;4.05;;
62582;SDS011;48641;51.676;5.808;2023-09-08T00:22:40;6.97;;;3.67;;
62582;SDS011;48641;51.676;5.808;2023-09-08T00:25:06;7.38;;;4.03;;
62582;SDS011;48641;51.676;5.808;2023-09-08T00:27:32;7.93;;;4.28;;
62582;SDS011;48641;51.676;5.808;2023-09-08T00:29:58;6.57;;;3.53;;
62582;SDS011;48641;51.676;5.808;2023-09-08T00:32:23;7.13;;;3.95;;
62582;SDS011;48641;51.676;5.808;2023-09-08T00:34:49;7.55;;;3.90;;
62582;SDS011;48641;51.676;5.808;2023-09-08T00:37:14;6.60;;;3.90;;
62582;SDS011;48641;51.676;5.808;2023-09-08T00:39:40;7.18;;;4.03;;
62582;SDS011;48641;51.676;5.808;2023-09-08T00:42:06;6.70;;;3.65;;
62582;SDS011;48641;51.676;5.808;2023-09-08T00:44:34;7.25;;;4.05;;
62582;SDS011;48641;51.676;5.808;2023-09-08T00:47:00;6.80;;;3.67;;
62582;SDS011;48641;51.676;5.808;2023-09-08T00:49:25;6.72;;;4.10;;
62582;SDS011;48641;51.676;5.808;2023-09-08T00:51:51;7.53;;;3.80;;
62582;SDS011;48641;51.676;5.808;2023-09-08T00:54:17;6.32;;;3.67;;
62582;SDS011;48641;51.676;5.808;2023-09-08T00:56:43;6.60;;;3.70;;
62582;SDS011;48641;51.676;5.808;2023-09-08T00:59:11;6.45;;;3.72;;
62582;SDS011;48641;51.676;5.808;2023-09-08T01:01:37;6.20;;;3.65;;
62582;SDS011;48641;51.676;5.808;2023-09-08T01:04:02;6.57;;;3.75;;
62582;SDS011;48641;51.676;5.808;2023-09-08T01:06:28;6.90;;;3.33;;
62582;SDS011;48641;51.676;5.808;2023-09-08T01:08:55;6.28;;;3.50;;
62582;SDS011;48641;51.676;5.808;2023-09-08T01:11:21;6.45;;;3.80;;
62582;SDS011;48641;51.676;5.808;2023-09-08T01:13:47;6.10;;;3.90;;
62582;SDS011;48641;51.676;5.808;2023-09-08T01:16:13;6.85;;;4.10;;
62582;SDS011;48641;51.676;5.808;2023-09-08T01:18:38;6.53;;;3.92;;
62582;SDS011;48641;51.676;5.808;2023-09-08T01:24:22;7.28;;;3.85;;
62582;SDS011;48641;51.676;5.808;2023-09-08T01:27:07;6.57;;;3.80;;
62582;SDS011;48641;51.676;5.808;2023-09-08T01:29:36;6.63;;;4.10;;
62582;SDS011;48641;51.676;5.808;2023-09-08T01:32:03;7.57;;;4.05;;
62582;SDS011;48641;51.676;5.808;2023-09-08T01:34:29;6.40;;;3.70;;
62582;SDS011;48641;51.676;5.808;2023-09-08T01:36:55;6.72;;;3.67;;
62582;SDS011;48641;51.676;5.808;2023-09-08T01:39:21;6.40;;;3.80;;
62582;SDS011;48641;51.676;5.808;2023-09-08T01:41:47;6.95;;;3.90;;
62582;SDS011;48641;51.676;5.808;2023-09-08T01:44:13;6.30;;;3.83;;
62582;SDS011;48641;51.676;5.808;2023-09-08T01:46:38;6.65;;;3.97;;
62582;SDS011;48641;51.676;5.808;2023-09-08T01:49:05;6.65;;;4.07;;
62582;SDS011;48641;51.676;5.808;2023-09-08T01:51:31;6.50;;;3.90;;
62582;SDS011;48641;51.676;5.808;2023-09-08T01:53:57;7.15;;;3.90;;
62582;SDS011;48641;51.676;5.808;2023-09-08T01:56:22;7.00;;;3.90;;
62582;SDS011;48641;51.676;5.808;2023-09-08T01:58:48;6.38;;;3.65;;
62582;SDS011;48641;51.676;5.808;2023-09-08T02:01:13;5.75;;;3.40;;
62582;SDS011;48641;51.676;5.808;2023-09-08T02:03:39;6.40;;;3.90;;
62582;SDS011;48641;51.676;5.808;2023-09-08T02:06:05;6.43;;;3.88;;
62582;SDS011;48641;51.676;5.808;2023-09-08T02:08:30;6.60;;;3.85;;
62582;SDS011;48641;51.676;5.808;2023-09-08T02:10:56;5.78;;;3.55;;
62582;SDS011;48641;51.676;5.808;2023-09-08T02:13:21;6.90;;;3.90;;
62582;SDS011;48641;51.676;5.808;2023-09-08T02:15:47;6.07;;;3.78;;
62582;SDS011;48641;51.676;5.808;2023-09-08T02:18:13;7.40;;;3.55;;
62582;SDS011;48641;51.676;5.808;2023-09-08T02:20:39;6.63;;;3.80;;
62582;SDS011;48641;51.676;5.808;2023-09-08T02:23:05;6.30;;;3.75;;
62582;SDS011;48641;51.676;5.808;2023-09-08T02:25:32;6.30;;;3.72;;
62582;SDS011;48641;51.676;5.808;2023-09-08T02:27:57;6.82;;;4.13;;
62582;SDS011;48641;51.676;5.808;2023-09-08T02:30:23;6.45;;;3.67;;
62582;SDS011;48641;51.676;5.808;2023-09-08T02:32:49;6.65;;;3.85;;
62582;SDS011;48641;51.676;5.808;2023-09-08T02:35:14;6.60;;;3.70;;
62582;SDS011;48641;51.676;5.808;2023-09-08T02:37:40;6.47;;;3.75;;
62582;SDS011;48641;51.676;5.808;2023-09-08T02:40:06;5.80;;;3.60;;
62582;SDS011;48641;51.676;5.808;2023-09-08T02:42:32;6.43;;;3.85;;
62582;SDS011;48641;51.676;5.808;2023-09-08T02:44:57;7.10;;;3.83;;
62582;SDS011;48641;51.676;5.808;2023-09-08T02:47:23;5.90;;;3.78;;
62582;SDS011;48641;51.676;5.808;2023-09-08T02:49:49;7.38;;;3.70;;
62582;SDS011;48641;51.676;5.808;2023-09-08T02:52:14;5.97;;;3.70;;
62582;SDS011;48641;51.676;5.808;2023-09-08T02:54:40;6.38;;;3.67;;
62582;SDS011;48641;51.676;5.808;2023-09-08T02:57:05;6.20;;;3.42;;
62582;SDS011;48641;51.676;5.808;2023-09-08T02:59:31;6.40;;;3.55;;
62582;SDS011;48641;51.676;5.808;2023-09-08T03:02:00;7.22;;;3.55;;
62582;SDS011;48641;51.676;5.808;2023-09-08T03:04:25;7.13;;;3.88;;
62582;SDS011;48641;51.676;5.808;2023-09-08T03:06:51;7.30;;;3.92;;
62582;SDS011;48641;51.676;5.808;2023-09-08T03:09:16;5.97;;;3.70;;
62582;SDS011;48641;51.676;5.808;2023-09-08T03:11:42;6.10;;;3.60;;
62582;SDS011;48641;51.676;5.808;2023-09-08T03:14:08;5.95;;;3.33;;
62582;SDS011;48641;51.676;5.808;2023-09-08T03:16:33;6.25;;;3.50;;
62582;SDS011;48641;51.676;5.808;2023-09-08T03:18:59;7.00;;;3.63;;
62582;SDS011;48641;51.676;5.808;2023-09-08T03:21:24;5.88;;;3.60;;
62582;SDS011;48641;51.676;5.808;2023-09-08T03:23:50;6.68;;;3.47;;
62582;SDS011;48641;51.676;5.808;2023-09-08T03:26:15;7.57;;;3.88;;
62582;SDS011;48641;51.676;5.808;2023-09-08T03:28:42;6.22;;;3.67;;
62582;SDS011;48641;51.676;5.808;2023-09-08T03:31:07;5.88;;;3.60;;
62582;SDS011;48641;51.676;5.808;2023-09-08T03:33:33;6.78;;;3.50;;
62582;SDS011;48641;51.676;5.808;2023-09-08T03:35:59;6.85;;;3.85;;
62582;SDS011;48641;51.676;5.808;2023-09-08T03:38:25;6.10;;;3.55;;
62582;SDS011;48641;51.676;5.808;2023-09-08T03:40:51;5.95;;;3.40;;
62582;SDS011;48641;51.676;5.808;2023-09-08T03:43:17;6.63;;;3.70;;
62582;SDS011;48641;51.676;5.808;2023-09-08T03:45:42;6.07;;;3.55;;
62582;SDS011;48641;51.676;5.808;2023-09-08T03:48:08;4.97;;;3.20;;
62582;SDS011;48641;51.676;5.808;2023-09-08T03:50:34;6.70;;;3.92;;
62582;SDS011;48641;51.676;5.808;2023-09-08T03:53:00;6.30;;;3.55;;
62582;SDS011;48641;51.676;5.808;2023-09-08T03:55:26;5.82;;;3.30;;
62582;SDS011;48641;51.676;5.808;2023-09-08T03:57:52;6.53;;;3.40;;
62582;SDS011;48641;51.676;5.808;2023-09-08T04:00:17;7.82;;;3.70;;
62582;SDS011;48641;51.676;5.808;2023-09-08T04:05:12;6.38;;;3.50;;
62582;SDS011;48641;51.676;5.808;2023-09-08T04:07:37;6.72;;;3.42;;
62582;SDS011;48641;51.676;5.808;2023-09-08T04:10:03;5.88;;;3.20;;
62582;SDS011;48641;51.676;5.808;2023-09-08T04:12:29;6.32;;;3.55;;
62582;SDS011;48641;51.676;5.808;2023-09-08T04:14:54;5.57;;;3.35;;
62582;SDS011;48641;51.676;5.808;2023-09-08T04:17:20;6.65;;;3.60;;
62582;SDS011;48641;51.676;5.808;2023-09-08T04:19:46;6.28;;;3.75;;
62582;SDS011;48641;51.676;5.808;2023-09-08T04:22:11;5.88;;;3.50;;
62582;SDS011;48641;51.676;5.808;2023-09-08T04:24:37;6.07;;;3.72;;
62582;SDS011;48641;51.676;5.808;2023-09-08T04:27:03;6.55;;;3.63;;
62582;SDS011;48641;51.676;5.808;2023-09-08T04:29:29;6.32;;;3.53;;
62582;SDS011;48641;51.676;5.808;2023-09-08T04:31:54;6.75;;;3.60;;
62582;SDS011;48641;51.676;5.808;2023-09-08T04:34:20;5.55;;;3.28;;
62582;SDS011;48641;51.676;5.808;2023-09-08T04:36:46;6.30;;;3.45;;
62582;SDS011;48641;51.676;5.808;2023-09-08T04:39:11;5.53;;;3.22;;
62582;SDS011;48641;51.676;5.808;2023-09-08T04:41:37;5.70;;;3.35;;
62582;SDS011;48641;51.676;5.808;2023-09-08T04:44:03;6.20;;;3.47;;
62582;SDS011;48641;51.676;5.808;2023-09-08T04:46:30;6.82;;;3.67;;
62582;SDS011;48641;51.676;5.808;2023-09-08T04:48:55;5.78;;;3.33;;
62582;SDS011;48641;51.676;5.808;2023-09-08T04:51:21;5.88;;;3.30;;
62582;SDS011;48641;51.676;5.808;2023-09-08T04:53:47;6.18;;;3.42;;
62582;SDS011;48641;51.676;5.808;2023-09-08T04:56:13;6.07;;;3.25;;
62582;SDS011;48641;51.676;5.808;2023-09-08T04:58:41;6.80;;;3.80;;
62582;SDS011;48641;51.676;5.808;2023-09-08T05:01:07;7.70;;;3.75;;
62582;SDS011;48641;51.676;5.808;2023-09-08T05:03:33;6.70;;;3.80;;
62582;SDS011;48641;51.676;5.808;2023-09-08T05:05:58;7.32;;;3.88;;
62582;SDS011;48641;51.676;5.808;2023-09-08T05:08:26;9.32;;;4.20;;
62582;SDS011;48641;51.676;5.808;2023-09-08T05:10:51;8.23;;;4.45;;
62582;SDS011;48641;51.676;5.808;2023-09-08T05:13:17;7.97;;;4.40;;
62582;SDS011;48641;51.676;5.808;2023-09-08T05:15:43;8.10;;;4.45;;
62582;SDS011;48641;51.676;5.808;2023-09-08T05:18:13;7.13;;;4.35;;
62582;SDS011;48641;51.676;5.808;2023-09-08T05:20:38;8.70;;;4.43;;
62582;SDS011;48641;51.676;5.808;2023-09-08T05:23:04;8.48;;;4.63;;
62582;SDS011;48641;51.676;5.808;2023-09-08T05:25:30;8.82;;;4.70;;
62582;SDS011;48641;51.676;5.808;2023-09-08T05:27:56;8.30;;;4.68;;
62582;SDS011;48641;51.676;5.808;2023-09-08T05:30:22;8.27;;;4.95;;
62582;SDS011;48641;51.676;5.808;2023-09-08T05:32:47;8.52;;;4.78;;
62582;SDS011;48641;51.676;5.808;2023-09-08T05:35:13;8.85;;;4.60;;
62582;SDS011;48641;51.676;5.808;2023-09-08T05:37:39;9.30;;;5.15;;
62582;SDS011;48641;51.676;5.808;2023-09-08T05:40:05;7.68;;;4.60;;
62582;SDS011;48641;51.676;5.808;2023-09-08T05:42:32;8.10;;;5.22;;
62582;SDS011;48641;51.676;5.808;2023-09-08T05:44:58;8.45;;;4.80;;
62582;SDS011;48641;51.676;5.808;2023-09-08T05:47:23;9.80;;;5.55;;
62582;SDS011;48641;51.676;5.808;2023-09-08T05:49:49;7.43;;;4.97;;
62582;SDS011;48641;51.676;5.808;2023-09-08T05:52:14;7.93;;;4.88;;
62582;SDS011;48641;51.676;5.808;2023-09-08T05:54:40;9.63;;;5.88;;
62582;SDS011;48641;51.676;5.808;2023-09-08T05:57:06;8.40;;;5.60;;
62582;SDS011;48641;51.676;5.808;2023-09-08T05:59:31;9.27;;;5.47;;
62582;SDS011;48641;51.676;5.808;2023-09-08T06:01:57;8.90;;;5.72;;
62582;SDS011;48641;51.676;5.808;2023-09-08T06:04:22;10.50;;;5.28;;
62582;SDS011;48641;51.676;5.808;2023-09-08T06:06:48;9.15;;;5.30;;
62582;SDS011;48641;51.676;5.808;2023-09-08T06:09:13;8.40;;;5.63;;
62582;SDS011;48641;51.676;5.808;2023-09-08T06:11:41;9.63;;;5.45;;
62582;SDS011;48641;51.676;5.808;2023-09-08T06:14:07;8.88;;;5.72;;
62582;SDS011;48641;51.676;5.808;2023-09-08T06:16:33;11.65;;;6.43;;
62582;SDS011;48641;51.676;5.808;2023-09-08T06:18:58;9.45;;;5.88;;
62582;SDS011;48641;51.676;5.808;2023-09-08T06:21:25;9.65;;;6.00;;
62582;SDS011;48641;51.676;5.808;2023-09-08T06:23:51;10.10;;;6.40;;
62582;SDS011;48641;51.676;5.808;2023-09-08T06:26:16;8.48;;;5.43;;
62582;SDS011;48641;51.676;5.808;2023-09-08T06:28:42;11.98;;;7.40;;
62582;SDS011;48641;51.676;5.808;2023-09-08T06:31:09;13.20;;;7.82;;
62582;SDS011;48641;51.676;5.808;2023-09-08T06:33:34;11.85;;;7.43;;
62582;SDS011;48641;51.676;5.808;2023-09-08T06:36:00;13.43;;;7.97;;
62582;SDS011;48641;51.676;5.808;2023-09-08T06:38:26;21.23;;;8.48;;
62582;SDS011;48641;51.676;5.808;2023-09-08T06:40:56;16.20;;;8.05;;
62582;SDS011;48641;51.676;5.808;2023-09-08T06:43:22;13.27;;;7.40;;
62582;SDS011;48641;51.676;5.808;2023-09-08T06:45:48;15.50;;;7.80;;
62582;SDS011;48641;51.676;5.808;2023-09-08T06:48:14;16.00;;;7.80;;
62582;SDS011;48641;51.676;5.808;2023-09-08T06:50:40;16.58;;;8.43;;
62582;SDS011;48641;51.676;5.808;2023-09-08T06:53:05;13.02;;;8.30;;
62582;SDS011;48641;51.676;5.808;2023-09-08T06:55:31;14.85;;;7.82;;
62582;SDS011;48641;51.676;5.808;2023-09-08T06:57:57;13.40;;;7.38;;
62582;SDS011;48641;51.676;5.808;2023-09-08T07:00:22;15.52;;;8.00;;
62582;SDS011;48641;51.676;5.808;2023-09-08T07:02:48;13.77;;;7.53;;
62582;SDS011;48641;51.676;5.808;2023-09-08T07:05:17;10.75;;;7.32;;
62582;SDS011;48641;51.676;5.808;2023-09-08T07:07:43;14.50;;;7.82;;
62582;SDS011;48641;51.676;5.808;2023-09-08T07:10:09;14.48;;;8.02;;
62582;SDS011;48641;51.676;5.808;2023-09-08T07:12:35;12.43;;;7.50;;
62582;SDS011;48641;51.676;5.808;2023-09-08T07:15:01;13.30;;;7.72;;
62582;SDS011;48641;51.676;5.808;2023-09-08T07:17:26;13.48;;;7.97;;
62582;SDS011;48641;51.676;5.808;2023-09-08T07:19:52;15.73;;;8.20;;
62582;SDS011;48641;51.676;5.808;2023-09-08T07:22:18;19.73;;;8.68;;
62582;SDS011;48641;51.676;5.808;2023-09-08T07:24:44;16.52;;;8.30;;
62582;SDS011;48641;51.676;5.808;2023-09-08T07:27:09;13.70;;;7.97;;
62582;SDS011;48641;51.676;5.808;2023-09-08T07:29:37;17.67;;;7.60;;
62582;SDS011;48641;51.676;5.808;2023-09-08T07:32:03;15.55;;;8.10;;
62582;SDS011;48641;51.676;5.808;2023-09-08T07:34:29;14.15;;;8.30;;
62582;SDS011;48641;51.676;5.808;2023-09-08T07:36:54;15.52;;;8.25;;
62582;SDS011;48641;51.676;5.808;2023-09-08T07:39:20;15.25;;;8.18;;
62582;SDS011;48641;51.676;5.808;2023-09-08T07:41:46;13.63;;;8.00;;
62582;SDS011;48641;51.676;5.808;2023-09-08T07:44:12;12.65;;;7.60;;
62582;SDS011;48641;51.676;5.808;2023-09-08T07:46:38;15.32;;;8.23;;
62582;SDS011;48641;51.676;5.808;2023-09-08T07:49:04;13.23;;;7.88;;
62582;SDS011;48641;51.676;5.808;2023-09-08T07:51:29;13.93;;;7.55;;
62582;SDS011;48641;51.676;5.808;2023-09-08T07:53:55;12.75;;;7.18;;
62582;SDS011;48641;51.676;5.808;2023-09-08T07:56:21;12.70;;;7.80;;
62582;SDS011;48641;51.676;5.808;2023-09-08T07:58:47;12.18;;;7.13;;
62582;SDS011;48641;51.676;5.808;2023-09-08T08:01:13;12.77;;;7.20;;
62582;SDS011;48641;51.676;5.808;2023-09-08T08:03:40;13.55;;;6.57;;
62582;SDS011;48641;51.676;5.808;2023-09-08T08:06:05;12.20;;;7.00;;
62582;SDS011;48641;51.676;5.808;2023-09-08T08:08:31;9.98;;;6.68;;
62582;SDS011;48641;51.676;5.808;2023-09-08T08:10:57;12.40;;;6.35;;
62582;SDS011;48641;51.676;5.808;2023-09-08T08:13:23;11.00;;;6.28;;
62582;SDS011;48641;51.676;5.808;2023-09-08T08:15:49;12.90;;;6.70;;
62582;SDS011;48641;51.676;5.808;2023-09-08T08:18:15;10.88;;;6.32;;
62582;SDS011;48641;51.676;5.808;2023-09-08T08:20:41;9.82;;;5.97;;
62582;SDS011;48641;51.676;5.808;2023-09-08T08:23:06;11.75;;;6.25;;
62582;SDS011;48641;51.676;5.808;2023-09-08T08:25:32;9.70;;;6.30;;
62582;SDS011;48641;51.676;5.808;2023-09-08T08:27:58;10.73;;;6.28;;
62582;SDS011;48641;51.676;5.808;2023-09-08T08:30:27;11.35;;;6.28;;
62582;SDS011;48641;51.676;5.808;2023-09-08T08:32:53;9.27;;;5.85;;
62582;SDS011;48641;51.676;5.808;2023-09-08T08:35:19;16.55;;;8.23;;
62582;SDS011;48641;51.676;5.808;2023-09-08T08:37:45;12.63;;;7.43;;
62582;SDS011;48641;51.676;5.808;2023-09-08T08:40:11;12.40;;;6.90;;
62582;SDS011;48641;51.676;5.808;2023-09-08T08:42:37;13.95;;;7.03;;
62582;SDS011;48641;51.676;5.808;2023-09-08T08:45:04;12.40;;;7.53;;
62582;SDS011;48641;51.676;5.808;2023-09-08T08:47:30;12.70;;;7.53;;
62582;SDS011;48641;51.676;5.808;2023-09-08T08:49:57;10.00;;;7.03;;
62582;SDS011;48641;51.676;5.808;2023-09-08T08:52:24;14.32;;;7.10;;
62582;SDS011;48641;51.676;5.808;2023-09-08T08:54:53;11.27;;;6.47;;
62582;SDS011;48641;51.676;5.808;2023-09-08T08:57:19;11.63;;;6.40;;
62582;SDS011;48641;51.676;5.808;2023-09-08T08:59:47;10.60;;;6.45;;
62582;SDS011;48641;51.676;5.808;2023-09-08T09:02:14;10.40;;;6.30;;
62582;SDS011;48641;51.676;5.808;2023-09-08T09:04:40;10.35;;;6.20;;
62582;SDS011;48641;51.676;5.808;2023-09-08T09:07:06;10.50;;;6.15;;
62582;SDS011;48641;51.676;5.808;2023-09-08T09:09:32;10.10;;;6.30;;
62582;SDS011;48641;51.676;5.808;2023-09-08T09:11:58;9.57;;;6.40;;
62582;SDS011;48641;51.676;5.808;2023-09-08T09:14:24;11.98;;;6.32;;
62582;SDS011;48641;51.676;5.808;2023-09-08T09:16:50;10.25;;;5.82;;
62582;SDS011;48641;51.676;5.808;2023-09-08T09:19:19;10.40;;;6.10;;
62582;SDS011;48641;51.676;5.808;2023-09-08T09:21:52;8.25;;;5.00;;
62582;SDS011;48641;51.676;5.808;2023-09-08T09:27:06;9.43;;;5.90;;
62582;SDS011;48641;51.676;5.808;2023-09-08T09:29:33;8.93;;;5.88;;
62582;SDS011;48641;51.676;5.808;2023-09-08T09:32:06;8.52;;;5.13;;
62582;SDS011;48641;51.676;5.808;2023-09-08T09:34:33;9.20;;;5.80;;
62582;SDS011;48641;51.676;5.808;2023-09-08T09:36:59;8.25;;;5.70;;
62582;SDS011;48641;51.676;5.808;2023-09-08T09:39:25;9.38;;;5.60;;
62582;SDS011;48641;51.676;5.808;2023-09-08T09:41:55;19.30;;;6.20;;
62582;SDS011;48641;51.676;5.808;2023-09-08T09:44:22;11.93;;;6.32;;
62582;SDS011;48641;51.676;5.808;2023-09-08T09:46:51;14.75;;;6.00;;
62582;SDS011;48641;51.676;5.808;2023-09-08T09:49:17;9.65;;;5.47;;
62582;SDS011;48641;51.676;5.808;2023-09-08T09:51:44;11.27;;;6.07;;
62582;SDS011;48641;51.676;5.808;2023-09-08T09:54:14;10.82;;;5.63;;
62582;SDS011;48641;51.676;5.808;2023-09-08T09:56:40;10.02;;;5.72;;
62582;SDS011;48641;51.676;5.808;2023-09-08T09:59:10;14.10;;;5.70;;
62582;SDS011;48641;51.676;5.808;2023-09-08T10:01:37;10.98;;;5.63;;
62582;SDS011;48641;51.676;5.808;2023-09-08T10:04:04;17.50;;;12.68;;
62582;SDS011;48641;51.676;5.808;2023-09-08T10:06:31;16.13;;;11.63;;
62582;SDS011;48641;51.676;5.808;2023-09-08T10:09:01;18.48;;;12.25;;
62582;SDS011;48641;51.676;5.808;2023-09-08T10:11:44;17.27;;;12.38;;
62582;SDS011;48641;51.676;5.808;2023-09-08T10:14:14;15.45;;;11.88;;
62582;SDS011;48641;51.676;5.808;2023-09-08T10:16:40;17.20;;;11.38;;
62582;SDS011;48641;51.676;5.808;2023-09-08T10:19:11;15.50;;;11.25;;
62582;SDS011;48641;51.676;5.808;2023-09-08T10:21:44;14.95;;;11.68;;
62582;SDS011;48641;51.676;5.808;2023-09-08T10:24:15;14.48;;;11.35;;
62582;SDS011;48641;51.676;5.808;2023-09-08T10:26:44;13.02;;;9.35;;
62582;SDS011;48641;51.676;5.808;2023-09-08T10:29:16;14.85;;;10.32;;
62582;SDS011;48641;51.676;5.808;2023-09-08T10:31:42;15.13;;;10.07;;
62582;SDS011;48641;51.676;5.808;2023-09-08T10:34:09;15.48;;;10.18;;
62582;SDS011;48641;51.676;5.808;2023-09-08T10:36:35;13.32;;;9.50;;
62582;SDS011;48641;51.676;5.808;2023-09-08T10:42:13;10.90;;;8.55;;
62582;SDS011;48641;51.676;5.808;2023-09-08T10:44:41;12.68;;;7.80;;
62582;SDS011;48641;51.676;5.808;2023-09-08T10:47:07;13.15;;;7.93;;
62582;SDS011;48641;51.676;5.808;2023-09-08T10:49:35;11.73;;;8.50;;
62582;SDS011;48641;51.676;5.808;2023-09-08T10:52:09;14.13;;;8.10;;
62582;SDS011;48641;51.676;5.808;2023-09-08T10:54:49;14.05;;;8.70;;
62582;SDS011;48641;51.676;5.808;2023-09-08T10:57:17;15.65;;;8.20;;
62582;SDS011;48641;51.676;5.808;2023-09-08T10:59:52;13.75;;;8.85;;
62582;SDS011;48641;51.676;5.808;2023-09-08T11:02:34;11.75;;;8.00;;
62582;SDS011;48641;51.676;5.808;2023-09-08T11:05:03;13.05;;;7.65;;
62582;SDS011;48641;51.676;5.808;2023-09-08T11:07:31;13.07;;;6.82;;
62582;SDS011;48641;51.676;5.808;2023-09-08T11:09:58;11.32;;;7.55;;
62582;SDS011;48641;51.676;5.808;2023-09-08T11:12:28;15.75;;;7.90;;
62582;SDS011;48641;51.676;5.808;2023-09-08T11:14:54;13.95;;;8.60;;
62582;SDS011;48641;51.676;5.808;2023-09-08T11:17:20;11.38;;;7.07;;
62582;SDS011;48641;51.676;5.808;2023-09-08T11:19:49;12.60;;;7.35;;
62582;SDS011;48641;51.676;5.808;2023-09-08T11:22:18;15.00;;;7.72;;
62582;SDS011;48641;51.676;5.808;2023-09-08T11:24:47;14.15;;;7.95;;
62582;SDS011;48641;51.676;5.808;2023-09-08T11:27:13;12.45;;;7.93;;
62582;SDS011;48641;51.676;5.808;2023-09-08T11:29:39;11.95;;;7.38;;
62582;SDS011;48641;51.676;5.808;2023-09-08T11:32:06;12.52;;;7.43;;
62582;SDS011;48641;51.676;5.808;2023-09-08T11:34:34;10.50;;;6.65;;
62582;SDS011;48641;51.676;5.808;2023-09-08T11:37:09;11.18;;;6.90;;
62582;SDS011;48641;51.676;5.808;2023-09-08T11:39:38;12.15;;;6.65;;
62582;SDS011;48641;51.676;5.808;2023-09-08T11:42:08;12.23;;;6.82;;
62582;SDS011;48641;51.676;5.808;2023-09-08T11:44:35;11.90;;;6.53;;
62582;SDS011;48641;51.676;5.808;2023-09-08T11:47:08;9.20;;;6.13;;
62582;SDS011;48641;51.676;5.808;2023-09-08T11:49:38;9.20;;;6.65;;
62582;SDS011;48641;51.676;5.808;2023-09-08T11:52:08;10.43;;;6.22;;
62582;SDS011;48641;51.676;5.808;2023-09-08T11:54:37;10.13;;;6.38;;
62582;SDS011;48641;51.676;5.808;2023-09-08T11:57:03;10.20;;;6.35;;
62582;SDS011;48641;51.676;5.808;2023-09-08T11:59:33;9.15;;;6.55;;
62582;SDS011;48641;51.676;5.808;2023-09-08T12:02:00;10.55;;;6.13;;
62582;SDS011;48641;51.676;5.808;2023-09-08T12:04:26;11.02;;;6.25;;
62582;SDS011;48641;51.676;5.808;2023-09-08T12:06:52;9.05;;;5.95;;
62582;SDS011;48641;51.676;5.808;2023-09-08T12:09:21;10.55;;;6.38;;
62582;SDS011;48641;51.676;5.808;2023-09-08T12:11:46;11.38;;;6.70;;
62582;SDS011;48641;51.676;5.808;2023-09-08T12:14:13;11.40;;;6.05;;
62582;SDS011;48641;51.676;5.808;2023-09-08T12:16:40;11.70;;;6.13;;
62582;SDS011;48641;51.676;5.808;2023-09-08T12:19:07;8.70;;;6.05;;
62582;SDS011;48641;51.676;5.808;2023-09-08T12:21:53;11.48;;;5.90;;
62582;SDS011;48641;51.676;5.808;2023-09-08T12:24:20;10.82;;;5.95;;
62582;SDS011;48641;51.676;5.808;2023-09-08T12:27:05;9.95;;;5.93;;
62582;SDS011;48641;51.676;5.808;2023-09-08T12:29:31;9.77;;;5.95;;
62582;SDS011;48641;51.676;5.808;2023-09-08T12:31:57;10.68;;;5.70;;
62582;SDS011;48641;51.676;5.808;2023-09-08T12:34:22;11.77;;;5.63;;
62582;SDS011;48641;51.676;5.808;2023-09-08T12:36:48;10.02;;;5.97;;
62582;SDS011;48641;51.676;5.808;2023-09-08T12:39:13;9.13;;;5.95;;
62582;SDS011;48641;51.676;5.808;2023-09-08T12:41:39;8.52;;;5.55;;
62582;SDS011;48641;51.676;5.808;2023-09-08T12:44:05;8.85;;;5.10;;
62582;SDS011;48641;51.676;5.808;2023-09-08T12:46:30;9.38;;;5.40;;
62582;SDS011;48641;51.676;5.808;2023-09-08T12:48:57;8.05;;;5.10;;
62582;SDS011;48641;51.676;5.808;2023-09-08T12:51:23;10.23;;;5.05;;
62582;SDS011;48641;51.676;5.808;2023-09-08T12:53:49;9.75;;;5.65;;
62582;SDS011;48641;51.676;5.808;2023-09-08T12:56:14;7.93;;;5.00;;
62582;SDS011;48641;51.676;5.808;2023-09-08T12:58:40;8.38;;;5.55;;
62582;SDS011;48641;51.676;5.808;2023-09-08T13:01:05;8.77;;;5.18;;
62582;SDS011;48641;51.676;5.808;2023-09-08T13:03:32;7.88;;;5.05;;
62582;SDS011;48641;51.676;5.808;2023-09-08T13:05:57;8.60;;;5.10;;
62582;SDS011;48641;51.676;5.808;2023-09-08T13:08:23;9.13;;;5.20;;
62582;SDS011;48641;51.676;5.808;2023-09-08T13:10:48;8.20;;;5.03;;
62582;SDS011;48641;51.676;5.808;2023-09-08T13:13:14;9.55;;;5.82;;
62582;SDS011;48641;51.676;5.808;2023-09-08T13:15:39;9.43;;;5.60;;
62582;SDS011;48641;51.676;5.808;2023-09-08T13:18:05;7.85;;;5.03;;
62582;SDS011;48641;51.676;5.808;2023-09-08T13:20:31;7.10;;;4.55;;
62582;SDS011;48641;51.676;5.808;2023-09-08T13:22:56;8.05;;;4.80;;
62582;SDS011;48641;51.676;5.808;2023-09-08T13:25:22;7.57;;;4.70;;
62582;SDS011;48641;51.676;5.808;2023-09-08T13:27:50;7.03;;;4.57;;
62582;SDS011;48641;51.676;5.808;2023-09-08T13:30:16;7.30;;;4.75;;
62582;SDS011;48641;51.676;5.808;2023-09-08T13:32:42;8.23;;;4.95;;
62582;SDS011;48641;51.676;5.808;2023-09-08T13:35:09;8.30;;;4.57;;
62582;SDS011;48641;51.676;5.808;2023-09-08T13:37:34;7.32;;;4.53;;
62582;SDS011;48641;51.676;5.808;2023-09-08T13:40:02;8.18;;;4.78;;
62582;SDS011;48641;51.676;5.808;2023-09-08T13:42:29;6.78;;;4.25;;
62582;SDS011;48641;51.676;5.808;2023-09-08T13:44:54;8.27;;;4.97;;
62582;SDS011;48641;51.676;5.808;2023-09-08T13:47:20;7.65;;;4.70;;
62582;SDS011;48641;51.676;5.808;2023-09-08T13:49:46;7.47;;;4.85;;
62582;SDS011;48641;51.676;5.808;2023-09-08T13:52:11;7.35;;;4.35;;
62582;SDS011;48641;51.676;5.808;2023-09-08T13:54:37;7.03;;;4.50;;
62582;SDS011;48641;51.676;5.808;2023-09-08T13:57:03;6.47;;;4.05;;
62582;SDS011;48641;51.676;5.808;2023-09-08T13:59:30;6.80;;;4.32;;
62582;SDS011;48641;51.676;5.808;2023-09-08T14:01:56;7.20;;;4.25;;
62582;SDS011;48641;51.676;5.808;2023-09-08T14:04:26;8.63;;;4.90;;
62582;SDS011;48641;51.676;5.808;2023-09-08T14:06:53;6.63;;;4.22;;
62582;SDS011;48641;51.676;5.808;2023-09-08T14:09:18;7.43;;;4.55;;
62582;SDS011;48641;51.676;5.808;2023-09-08T14:11:44;7.30;;;4.60;;
62582;SDS011;48641;51.676;5.808;2023-09-08T14:14:10;6.78;;;4.05;;
62582;SDS011;48641;51.676;5.808;2023-09-08T14:16:35;7.30;;;4.28;;
62582;SDS011;48641;51.676;5.808;2023-09-08T14:19:01;6.57;;;4.22;;
62582;SDS011;48641;51.676;5.808;2023-09-08T14:21:26;7.97;;;4.53;;
62582;SDS011;48641;51.676;5.808;2023-09-08T14:23:52;7.43;;;4.40;;
62582;SDS011;48641;51.676;5.808;2023-09-08T14:26:18;7.05;;;4.20;;
62582;SDS011;48641;51.676;5.808;2023-09-08T14:28:45;6.80;;;4.30;;
62582;SDS011;48641;51.676;5.808;2023-09-08T14:31:11;7.38;;;4.47;;
62582;SDS011;48641;51.676;5.808;2023-09-08T14:33:36;7.28;;;4.20;;
62582;SDS011;48641;51.676;5.808;2023-09-08T14:36:02;7.15;;;4.32;;
62582;SDS011;48641;51.676;5.808;2023-09-08T14:38:28;7.32;;;4.25;;
62582;SDS011;48641;51.676;5.808;2023-09-08T14:40:55;7.35;;;4.40;;
62582;SDS011;48641;51.676;5.808;2023-09-08T14:43:27;6.78;;;4.25;;
62582;SDS011;48641;51.676;5.808;2023-09-08T14:45:54;7.35;;;4.55;;
62582;SDS011;48641;51.676;5.808;2023-09-08T14:48:22;7.18;;;4.05;;
62582;SDS011;48641;51.676;5.808;2023-09-08T14:50:47;7.50;;;4.32;;